Time;durP1;ratioP1;P1;durP2;ratioP2;P2;SDS_P1;SDS_P2;PMS_P1;PMS_P2;Temp;Humidity;BMP_temperature;BMP_pressure;BME280_temperature;BME280_humidity;BME280_pressure;Samples;Min_cycle;Max_cycle;Signal;HPM_P1;HPM_P2
2021/07/30 00:00:26;;;;;;;6.20;4.25;;;16.50;81.60;;;;;;5012404;28;20049;-70
2021/07/30 00:02:51;;;;;;;6.80;4.53;;;16.40;81.90;;;;;;5012643;28;20041;-70
2021/07/30 00:05:17;;;;;;;6.13;4.68;;;16.40;82.10;;;;;;5011924;28;20022;-69
2021/07/30 00:07:44;;;;;;;5.22;4.43;;;16.30;82.10;;;;;;5012548;28;20478;-70
2021/07/30 00:10:10;;;;;;;5.72;4.70;;;16.20;82.30;;;;;;5012479;28;20057;-74
2021/07/30 00:12:36;;;;;;;4.95;4.45;;;16.10;82.70;;;;;;4994791;28;20065;-70
2021/07/30 00:15:03;;;;;;;7.30;5.20;;;16.10;83.00;;;;;;5011488;28;20065;-70
2021/07/30 00:17:28;;;;;;;6.40;4.95;;;16.10;83.30;;;;;;5012046;28;20040;-69
2021/07/30 00:19:54;;;;;;;8.68;5.35;;;16.20;83.50;;;;;;5012578;28;20026;-70
2021/07/30 00:22:19;;;;;;;8.18;5.40;;;16.20;83.50;;;;;;5012397;28;20112;-70
2021/07/30 00:24:45;;;;;;;8.20;5.10;;;16.20;83.40;;;;;;5011318;28;20022;-69
2021/07/30 00:27:11;;;;;;;8.85;5.22;;;16.20;83.50;;;;;;5011866;28;20026;-69
2021/07/30 00:29:37;;;;;;;9.38;5.13;;;16.20;83.60;;;;;;5011713;28;20026;-70
2021/07/30 00:32:05;;;;;;;7.00;5.13;;;16.20;83.70;;;;;;5011958;28;20026;-69
2021/07/30 00:34:30;;;;;;;10.13;5.53;;;16.20;83.80;;;;;;5011716;28;20025;-69
2021/07/30 00:36:56;;;;;;;9.13;5.28;;;16.20;83.80;;;;;;5011470;28;20026;-68
2021/07/30 00:39:21;;;;;;;6.45;4.88;;;16.20;84.00;;;;;;5011754;28;20030;-68
2021/07/30 00:41:47;;;;;;;7.68;5.00;;;16.10;84.10;;;;;;5011918;28;20057;-68
2021/07/30 00:44:13;;;;;;;7.22;4.95;;;16.10;84.10;;;;;;5011964;28;20025;-69
2021/07/30 00:46:39;;;;;;;6.15;4.70;;;16.10;84.30;;;;;;5010806;28;20058;-69
2021/07/30 00:49:05;;;;;;;7.53;4.82;;;16.10;84.30;;;;;;5011986;28;20465;-69
2021/07/30 00:51:31;;;;;;;6.93;4.82;;;16.00;84.30;;;;;;5011932;28;20029;-69
2021/07/30 00:53:57;;;;;;;8.23;4.47;;;16.00;84.40;;;;;;5011813;28;20097;-69
2021/07/30 00:56:23;;;;;;;4.93;4.05;;;15.90;84.50;;;;;;5010567;28;20034;-70
2021/07/30 00:58:49;;;;;;;6.13;4.20;;;16.00;84.70;;;;;;5010952;28;20053;-68
2021/07/30 01:01:17;;;;;;;7.07;4.60;;;15.90;84.60;;;;;;5008549;28;20033;-70
2021/07/30 01:03:42;;;;;;;8.23;4.72;;;15.90;84.60;;;;;;5011833;28;20022;-68
2021/07/30 01:06:08;;;;;;;7.15;4.68;;;15.90;84.80;;;;;;5010514;28;20071;-68
2021/07/30 01:08:33;;;;;;;5.45;4.20;;;15.90;84.70;;;;;;5010844;28;20034;-68
2021/07/30 01:10:59;;;;;;;5.70;4.30;;;15.80;84.70;;;;;;5011295;28;20029;-70
2021/07/30 01:13:24;;;;;;;5.30;4.38;;;15.80;84.90;;;;;;5011272;28;20457;-69
2021/07/30 01:15:50;;;;;;;6.22;4.22;;;15.80;84.90;;;;;;5010164;28;20402;-69
2021/07/30 01:18:16;;;;;;;6.28;4.10;;;15.70;84.90;;;;;;5011086;28;20041;-69
2021/07/30 01:20:43;;;;;;;6.68;3.80;;;15.70;84.90;;;;;;5011644;28;20381;-68
2021/07/30 01:23:10;;;;;;;6.47;4.53;;;15.70;84.90;;;;;;5011358;28;20064;-68
2021/07/30 01:25:37;;;;;;;7.88;4.03;;;15.60;85.00;;;;;;5010164;28;20069;-69
2021/07/30 01:28:03;;;;;;;8.15;3.88;;;15.60;85.00;;;;;;5010639;28;20112;-69
2021/07/30 01:30:29;;;;;;;5.75;3.50;;;15.60;85.00;;;;;;5010842;28;20060;-69
2021/07/30 01:32:54;;;;;;;4.43;3.70;;;15.50;85.00;;;;;;5011236;28;20061;-70
2021/07/30 01:35:20;;;;;;;9.30;4.40;;;15.50;85.00;;;;;;5010170;28;20034;-71
2021/07/30 01:37:46;;;;;;;5.10;3.83;;;15.50;85.00;;;;;;5010953;28;20021;-68
2021/07/30 01:40:12;;;;;;;6.70;4.07;;;15.40;84.90;;;;;;5050099;23;20706;-65
2021/07/30 01:42:39;;;;;;;5.65;3.80;;;15.40;85.00;;;;;;4974979;28;20018;-65
2021/07/30 01:45:06;;;;;;;6.00;3.97;;;15.40;85.10;;;;;;4986643;28;20539;-65
2021/07/30 01:47:32;;;;;;;3.78;3.35;;;15.40;85.20;;;;;;4953882;28;20069;-67
2021/07/30 01:49:57;;;;;;;7.65;3.53;;;15.30;85.10;;;;;;4935468;29;20059;-65
2021/07/30 01:52:23;;;;;;;4.70;3.30;;;15.30;85.20;;;;;;4952504;28;20035;-65
2021/07/30 01:54:48;;;;;;;7.00;3.20;;;15.20;85.10;;;;;;4951509;29;20027;-65
2021/07/30 01:57:16;;;;;;;5.05;3.75;;;15.20;85.10;;;;;;4951801;28;20094;-65
2021/07/30 01:59:42;;;;;;;4.50;3.70;;;15.20;85.30;;;;;;4933063;28;20480;-65
2021/07/30 02:02:08;;;;;;;6.80;4.15;;;15.10;85.30;;;;;;4951948;29;20106;-65
2021/07/30 02:04:33;;;;;;;5.65;3.88;;;15.10;85.40;;;;;;4951557;28;20031;-65
2021/07/30 02:07:00;;;;;;;4.28;3.75;;;15.10;85.40;;;;;;4951890;28;20122;-65
2021/07/30 02:09:31;;;;;;;6.15;3.80;;;15.10;85.40;;;;;;4954085;28;20023;-65
2021/07/30 02:11:57;;;;;;;5.18;4.10;;;15.10;85.50;;;;;;4971355;28;20390;-65
2021/07/30 02:14:25;;;;;;;9.10;4.40;;;15.10;85.50;;;;;;4971699;28;20023;-65
2021/07/30 02:16:53;;;;;;;6.28;4.65;;;15.10;85.50;;;;;;4943380;29;20031;-65
2021/07/30 02:19:19;;;;;;;6.53;5.07;;;15.10;85.50;;;;;;4953135;28;20689;-65
2021/07/30 02:21:46;;;;;;;5.95;4.72;;;15.00;85.50;;;;;;4956081;29;20078;-65
2021/07/30 02:24:12;;;;;;;6.38;4.55;;;15.00;85.60;;;;;;4955925;29;20023;-65
2021/07/30 02:26:38;;;;;;;6.88;4.72;;;15.00;85.60;;;;;;4954792;29;20106;-65
2021/07/30 02:29:04;;;;;;;8.02;5.32;;;14.90;85.60;;;;;;4955583;28;20494;-65
2021/07/30 02:31:30;;;;;;;6.30;5.18;;;14.90;85.60;;;;;;4949659;28;20031;-65
2021/07/30 02:33:55;;;;;;;7.97;5.45;;;14.90;85.70;;;;;;4955977;29;20524;-65
2021/07/30 02:36:21;;;;;;;8.32;5.75;;;14.80;85.70;;;;;;4954690;28;20043;-65
2021/07/30 02:38:47;;;;;;;8.13;5.72;;;14.80;85.80;;;;;;4955436;29;20538;-65
2021/07/30 02:41:13;;;;;;;6.72;4.82;;;14.80;85.90;;;;;;4971556;28;20035;-65
2021/07/30 02:43:39;;;;;;;10.25;5.60;;;14.80;86.00;;;;;;4975251;28;20113;-65
2021/07/30 02:46:05;;;;;;;8.05;5.80;;;14.70;86.00;;;;;;4968075;28;20039;-65
2021/07/30 02:48:31;;;;;;;7.75;5.60;;;14.70;86.10;;;;;;4955644;29;20035;-65
2021/07/30 02:50:57;;;;;;;6.78;5.45;;;14.70;86.10;;;;;;4955643;29;20037;-65
2021/07/30 02:53:22;;;;;;;7.68;5.68;;;14.70;86.10;;;;;;4938180;29;20031;-65
2021/07/30 02:55:48;;;;;;;8.93;6.13;;;14.60;86.60;;;;;;4936991;29;20035;-65
2021/07/30 02:58:14;;;;;;;8.85;6.13;;;14.60;86.10;;;;;;4955263;29;20038;-65
2021/07/30 03:00:40;;;;;;;8.00;6.07;;;14.60;86.00;;;;;;4949705;28;20432;-65
2021/07/30 03:03:05;;;;;;;8.02;5.80;;;14.60;86.10;;;;;;4955223;29;20039;-65
2021/07/30 03:05:31;;;;;;;9.93;5.40;;;14.50;86.10;;;;;;4936793;28;20502;-65
2021/07/30 03:07:57;;;;;;;10.18;6.72;;;14.50;86.20;;;;;;4955147;29;20315;-65
2021/07/30 03:10:23;;;;;;;9.13;5.93;;;14.50;86.30;;;;;;4947121;28;20023;-65
2021/07/30 03:12:48;;;;;;;9.02;5.95;;;14.50;86.40;;;;;;4974382;28;20031;-65
2021/07/30 03:15:14;;;;;;;7.25;5.65;;;14.50;86.50;;;;;;4973590;28;20027;-65
2021/07/30 03:17:40;;;;;;;8.07;5.95;;;14.50;86.40;;;;;;4955611;28;20023;-65
2021/07/30 03:20:06;;;;;;;8.75;5.72;;;14.50;86.40;;;;;;4955170;29;20077;-65
2021/07/30 03:22:35;;;;;;;8.18;6.53;;;14.50;86.40;;;;;;4954817;29;20028;-65
2021/07/30 03:25:01;;;;;;;8.77;6.07;;;14.40;86.30;;;;;;4953935;29;20423;-66
2021/07/30 03:27:27;;;;;;;11.13;6.20;;;14.40;86.30;;;;;;4954379;29;20030;-66
2021/07/30 03:29:53;;;;;;;10.02;6.50;;;14.40;86.30;;;;;;4960241;28;20023;-65
2021/07/30 03:32:20;;;;;;;10.32;5.90;;;14.30;86.40;;;;;;4959231;28;20027;-65
2021/07/30 03:34:46;;;;;;;11.25;6.43;;;14.30;86.50;;;;;;4953671;29;20133;-66
2021/07/30 03:37:13;;;;;;;8.50;6.00;;;14.30;86.60;;;;;;4954399;28;20110;-66
2021/07/30 03:39:38;;;;;;;8.40;6.05;;;14.20;86.60;;;;;;4958148;28;20054;-65
2021/07/30 03:42:05;;;;;;;10.00;5.28;;;14.20;86.80;;;;;;4956415;28;20019;-65
2021/07/30 03:44:30;;;;;;;7.50;5.70;;;14.10;86.70;;;;;;4956284;28;20030;-65
2021/07/30 03:46:56;;;;;;;10.55;5.85;;;14.10;86.70;;;;;;4960610;28;20444;-66
2021/07/30 03:49:22;;;;;;;8.30;5.55;;;14.10;86.70;;;;;;4954640;28;20031;-67
2021/07/30 03:51:47;;;;;;;7.10;5.72;;;14.10;86.80;;;;;;4954555;29;20028;-67
2021/07/30 03:54:13;;;;;;;7.88;5.45;;;14.10;86.90;;;;;;4954563;29;20036;-67
2021/07/30 03:56:42;;;;;;;7.93;5.05;;;14.00;86.90;;;;;;4953350;28;20033;-67
2021/07/30 03:59:09;;;;;;;6.28;4.75;;;14.00;86.90;;;;;;4954583;29;20035;-67
2021/07/30 04:01:35;;;;;;;6.80;4.78;;;14.00;86.90;;;;;;4934391;29;20031;-67
2021/07/30 04:04:00;;;;;;;7.18;4.82;;;14.00;86.90;;;;;;4954486;29;20027;-67
2021/07/30 04:06:26;;;;;;;5.85;4.70;;;13.90;87.00;;;;;;4953180;28;20027;-67
2021/07/30 04:08:52;;;;;;;8.90;4.97;;;13.90;87.00;;;;;;4954507;29;20023;-67
2021/07/30 04:11:17;;;;;;;5.93;4.55;;;13.90;87.00;;;;;;4970580;28;20031;-67
2021/07/30 04:13:46;;;;;;;6.28;4.78;;;13.90;87.10;;;;;;4973603;28;20027;-67
2021/07/30 04:16:12;;;;;;;7.03;5.45;;;13.90;87.10;;;;;;4965679;28;20060;-67
2021/07/30 04:18:37;;;;;;;5.50;4.75;;;13.90;87.20;;;;;;4954108;29;20031;-67
2021/07/30 04:21:04;;;;;;;7.05;5.38;;;13.90;87.10;;;;;;4954050;29;20030;-67
2021/07/30 04:23:30;;;;;;;6.60;5.22;;;14.00;87.70;;;;;;4954273;29;20057;-67
2021/07/30 04:25:55;;;;;;;7.07;4.43;;;14.00;87.20;;;;;;4952924;29;20458;-67
2021/07/30 04:28:21;;;;;;;7.88;4.32;;;14.00;87.20;;;;;;4953432;28;20033;-67
2021/07/30 04:30:47;;;;;;;4.35;3.90;;;14.00;87.10;;;;;;4962956;28;20055;-67
2021/07/30 04:33:12;;;;;;;5.15;3.65;;;13.90;87.10;;;;;;4970194;28;20027;-67
2021/07/30 04:35:38;;;;;;;4.15;3.75;;;13.90;87.10;;;;;;4972010;28;20161;-67
2021/07/30 04:38:04;;;;;;;9.07;3.55;;;13.90;87.20;;;;;;4973195;28;20022;-67
2021/07/30 04:40:29;;;;;;;4.22;3.60;;;13.90;87.30;;;;;;4969092;28;20106;-67
2021/07/30 04:42:59;;;;;;;4.47;3.65;;;13.90;87.40;;;;;;4972269;28;20047;-67
2021/07/30 04:45:25;;;;;;;5.15;3.83;;;13.90;87.50;;;;;;4970918;28;20027;-67
2021/07/30 04:47:52;;;;;;;3.83;3.35;;;13.90;87.50;;;;;;4953847;29;20063;-67
2021/07/30 04:50:18;;;;;;;5.47;3.70;;;13.90;87.60;;;;;;4953793;29;20041;-67
2021/07/30 04:52:43;;;;;;;4.95;3.97;;;13.90;87.70;;;;;;4953768;29;20062;-67
2021/07/30 04:55:09;;;;;;;5.45;3.83;;;13.90;87.90;;;;;;4952809;29;20063;-67
2021/07/30 04:57:35;;;;;;;4.50;3.78;;;13.80;87.90;;;;;;4953448;29;20027;-67
2021/07/30 05:00:00;;;;;;;4.63;3.90;;;13.80;88.10;;;;;;4935458;28;20082;-67
2021/07/30 05:02:26;;;;;;;6.43;4.20;;;13.90;88.10;;;;;;4934479;29;20118;-67
2021/07/30 05:04:55;;;;;;;8.02;5.07;;;13.90;88.20;;;;;;4935213;29;20031;-67
2021/07/30 05:07:24;;;;;;;9.30;6.65;;;13.90;88.50;;;;;;4936138;29;20472;-67
2021/07/30 05:09:49;;;;;;;9.25;6.10;;;14.00;88.60;;;;;;4958523;28;20038;-67
2021/07/30 05:12:15;;;;;;;11.57;7.15;;;14.00;88.60;;;;;;4972600;28;20126;-67
2021/07/30 05:14:41;;;;;;;7.60;5.68;;;14.00;88.70;;;;;;4971909;28;20059;-67
2021/07/30 05:17:06;;;;;;;13.95;6.70;;;14.10;88.80;;;;;;4958275;28;20542;-67
2021/07/30 05:19:32;;;;;;;12.65;6.78;;;14.20;89.00;;;;;;4953303;28;20530;-67
2021/07/30 05:21:57;;;;;;;11.93;7.60;;;14.30;89.00;;;;;;4953399;29;20027;-66
2021/07/30 05:24:23;;;;;;;12.38;7.65;;;14.30;88.90;;;;;;4953426;29;20423;-67
2021/07/30 05:26:49;;;;;;;10.55;7.13;;;14.40;89.00;;;;;;4949874;28;20023;-67
2021/07/30 05:29:14;;;;;;;8.48;6.78;;;14.50;89.10;;;;;;4952936;28;20031;-67
2021/07/30 05:31:40;;;;;;;9.13;6.82;;;14.50;89.50;;;;;;4953161;29;20031;-67
2021/07/30 05:34:05;;;;;;;11.30;7.20;;;14.60;89.10;;;;;;4953149;29;20023;-67
2021/07/30 05:36:31;;;;;;;14.07;8.88;;;14.60;89.00;;;;;;4951881;28;20024;-67
2021/07/30 05:38:56;;;;;;;12.52;7.95;;;14.70;89.00;;;;;;4935626;29;20110;-67
2021/07/30 05:41:22;;;;;;;9.23;6.30;;;14.80;89.00;;;;;;4952746;28;20031;-67
2021/07/30 05:43:49;;;;;;;7.30;5.70;;;14.80;89.00;;;;;;4964317;28;20020;-67
2021/07/30 05:46:21;;;;;;;9.98;6.03;;;14.80;89.10;;;;;;4951783;28;20029;-67
2021/07/30 05:48:47;;;;;;;7.90;4.45;;;14.80;89.30;;;;;;4935510;29;20114;-67
2021/07/30 05:51:13;;;;;;;5.75;5.00;;;14.90;88.90;;;;;;4935646;28;20038;-67
2021/07/30 05:53:40;;;;;;;5.63;4.72;;;14.90;88.70;;;;;;4952764;29;20028;-67
2021/07/30 05:56:06;;;;;;;8.98;5.15;;;14.90;88.80;;;;;;4951662;28;20079;-67
2021/07/30 05:58:32;;;;;;;7.82;5.45;;;14.80;88.80;;;;;;4935001;29;20027;-67
2021/07/30 06:00:58;;;;;;;10.73;5.68;;;14.90;89.10;;;;;;4952513;29;20023;-67
2021/07/30 06:03:24;;;;;;;13.05;5.97;;;15.00;89.20;;;;;;4952835;29;20039;-67
2021/07/30 06:05:49;;;;;;;12.77;7.15;;;15.00;89.10;;;;;;4951597;29;20024;-67
2021/07/30 06:08:15;;;;;;;8.27;4.97;;;15.10;89.00;;;;;;4952710;29;20399;-67
2021/07/30 06:10:41;;;;;;;9.85;4.95;;;15.10;89.10;;;;;;4964259;28;20038;-67
2021/07/30 06:13:06;;;;;;;7.35;5.05;;;15.20;89.10;;;;;;4942901;28;20131;-67
2021/07/30 06:15:32;;;;;;;8.45;5.10;;;15.20;89.10;;;;;;4970464;28;20027;-67
2021/07/30 06:18:00;;;;;;;7.65;5.10;;;15.30;89.10;;;;;;4971733;28;20034;-67
2021/07/30 06:20:25;;;;;;;9.65;6.07;;;15.30;89.20;;;;;;4971934;28;20106;-67
2021/07/30 06:22:51;;;;;;;9.35;5.50;;;15.40;89.20;;;;;;4971863;28;20051;-67
2021/07/30 06:25:16;;;;;;;7.72;4.40;;;15.40;89.30;;;;;;4953705;28;20117;-67
2021/07/30 06:27:42;;;;;;;6.00;4.00;;;15.50;89.30;;;;;;4945418;28;20026;-67
2021/07/30 06:30:08;;;;;;;8.27;4.88;;;15.60;89.30;;;;;;4959203;28;20435;-67
2021/07/30 06:32:38;;;;;;;7.93;4.15;;;15.70;89.10;;;;;;4950534;28;20113;-67
2021/07/30 06:35:04;;;;;;;7.38;4.32;;;15.70;88.90;;;;;;4970736;28;20066;-67
2021/07/30 06:37:33;;;;;;;7.35;3.88;;;15.80;88.70;;;;;;4971446;28;20081;-67
2021/07/30 06:40:00;;;;;;;8.43;4.15;;;15.80;88.70;;;;;;4971587;28;20491;-67
2021/07/30 06:42:25;;;;;;;7.15;3.78;;;15.90;88.50;;;;;;4964061;28;20098;-67
2021/07/30 06:44:51;;;;;;;7.75;4.03;;;16.00;88.50;;;;;;4970467;28;20102;-67
2021/07/30 06:47:19;;;;;;;6.82;4.07;;;16.00;88.40;;;;;;4971379;28;20029;-67
2021/07/30 06:49:44;;;;;;;7.50;4.20;;;16.10;88.50;;;;;;4953706;28;20035;-67
2021/07/30 06:52:10;;;;;;;7.10;4.40;;;16.20;88.70;;;;;;4952291;28;20373;-67
2021/07/30 06:54:37;;;;;;;7.07;4.10;;;16.20;88.70;;;;;;4951175;28;20034;-67
2021/07/30 06:57:03;;;;;;;7.57;3.88;;;16.30;88.60;;;;;;4934465;28;20035;-67
2021/07/30 06:59:29;;;;;;;4.95;3.42;;;16.50;88.70;;;;;;4951977;29;20031;-67
2021/07/30 07:01:55;;;;;;;8.40;3.85;;;16.60;88.50;;;;;;4951263;29;20020;-66
2021/07/30 07:04:21;;;;;;;5.32;3.50;;;16.70;88.50;;;;;;4952581;29;20039;-67
2021/07/30 07:06:47;;;;;;;6.35;4.15;;;16.80;88.40;;;;;;4951967;28;20480;-67
2021/07/30 07:09:17;;;;;;;8.38;3.40;;;16.90;88.30;;;;;;4938410;28;20039;-67
2021/07/30 07:11:42;;;;;;;5.47;3.35;;;17.10;88.20;;;;;;4955286;29;20738;-67
2021/07/30 07:14:08;;;;;;;5.10;3.20;;;17.30;87.80;;;;;;4971007;28;20110;-67
2021/07/30 07:16:34;;;;;;;5.57;3.25;;;17.60;87.40;;;;;;4964045;28;20035;-67
2021/07/30 07:18:59;;;;;;;7.70;3.38;;;18.00;86.80;;;;;;4955310;29;20111;-67
2021/07/30 07:21:25;;;;;;;4.65;3.30;;;18.30;86.40;;;;;;4955604;29;20034;-67
2021/07/30 07:23:51;;;;;;;8.43;3.20;;;18.70;85.90;;;;;;4955498;29;20023;-67
2021/07/30 07:26:17;;;;;;;5.40;3.22;;;19.10;85.30;;;;;;4947101;28;20110;-67
2021/07/30 07:28:46;;;;;;;3.70;2.75;;;19.40;84.90;;;;;;4954373;28;20031;-67
2021/07/30 07:31:12;;;;;;;6.68;2.85;;;19.80;84.70;;;;;;4971117;28;20029;-67
2021/07/30 07:33:37;;;;;;;8.70;2.63;;;20.20;83.50;;;;;;4974636;28;20109;-67
2021/07/30 07:36:03;;;;;;;4.15;2.55;;;20.50;82.50;;;;;;4973500;28;20023;-67
2021/07/30 07:38:29;;;;;;;4.13;2.40;;;20.90;81.60;;;;;;4974316;28;20027;-67
2021/07/30 07:40:54;;;;;;;8.50;2.65;;;21.40;80.60;;;;;;5026475;23;20037;-90
2021/07/30 07:43:20;;;;;;;6.10;2.40;;;21.80;79.30;;;;;;5001496;28;20026;-91
2021/07/30 07:45:46;;;;;;;2.55;2.00;;;22.10;78.60;;;;;;5011128;28;20049;-90
2021/07/30 07:48:11;;;;;;;5.53;2.20;;;22.40;77.20;;;;;;5018047;28;20026;-91
2021/07/30 07:50:37;;;;;;;4.47;2.20;;;22.60;76.20;;;;;;5017640;28;20480;-92
2021/07/30 07:53:12;;;;;;;2.70;2.45;;;22.90;75.50;;;;;;5017613;28;20025;-91
2021/07/30 07:55:41;;;;;;;3.10;2.10;;;23.30;74.00;;;;;;5016753;28;20026;-91
2021/07/30 07:58:07;;;;;;;4.53;2.22;;;23.50;72.70;;;;;;5004366;28;20084;-91
2021/07/30 08:00:33;;;;;;;3.78;2.13;;;23.70;72.10;;;;;;4997697;28;20029;-91
2021/07/30 08:02:59;;;;;;;13.27;7.30;;;23.90;71.60;;;;;;4997556;28;20154;-91
2021/07/30 08:05:24;;;;;;;7.10;2.40;;;24.20;70.90;;;;;;4997167;28;20053;-91
2021/07/30 08:07:50;;;;;;;4.00;2.30;;;24.50;69.70;;;;;;4997701;28;20034;-91
2021/07/30 08:10:16;;;;;;;4.45;2.10;;;24.70;68.60;;;;;;4996103;28;20029;-91
2021/07/30 08:12:41;;;;;;;4.93;2.50;;;24.90;67.70;;;;;;5001366;28;20025;-90
2021/07/30 08:15:08;;;;;;;3.53;2.22;;;25.10;66.30;;;;;;4992559;28;20117;-91
2021/07/30 08:17:37;;;;;;;3.17;2.22;;;25.20;65.40;;;;;;4996581;28;20036;-91
2021/07/30 08:20:05;;;;;;;5.00;2.38;;;25.40;64.80;;;;;;4995764;28;20460;-90
2021/07/30 08:22:30;;;;;;;4.32;2.30;;;25.80;64.60;;;;;;4996733;28;20061;-89
2021/07/30 08:24:56;;;;;;;7.32;2.60;;;26.00;63.60;;;;;;4996564;28;20046;-91
2021/07/30 08:27:22;;;;;;;4.60;2.33;;;26.30;63.50;;;;;;4986104;28;20065;-91
2021/07/30 08:29:47;;;;;;;4.95;2.88;;;26.60;62.50;;;;;;4995354;28;20071;-90
2021/07/30 08:32:14;;;;;;;3.72;2.28;;;26.90;62.20;;;;;;5008341;28;20026;-90
2021/07/30 08:34:40;;;;;;;6.05;2.28;;;27.20;60.80;;;;;;5015937;28;20033;-92
2021/07/30 08:37:07;;;;;;;8.52;2.40;;;27.40;60.40;;;;;;5003646;28;20521;-91
2021/07/30 08:39:33;;;;;;;3.83;2.28;;;27.80;59.80;;;;;;4996457;28;20034;-89
2021/07/30 08:42:00;;;;;;;4.07;2.72;;;28.20;58.10;;;;;;4996626;28;20548;-91
2021/07/30 08:44:27;;;;;;;2.85;2.38;;;28.60;57.60;;;;;;5003454;28;20397;-91
2021/07/30 08:46:53;;;;;;;6.00;2.40;;;29.10;57.20;;;;;;5001028;28;20030;-91
2021/07/30 08:49:18;;;;;;;3.72;2.40;;;29.50;55.90;;;;;;4996522;28;20034;-92
2021/07/30 08:51:47;;;;;;;3.33;2.50;;;29.60;55.10;;;;;;4997269;28;20379;-93
2021/07/30 08:54:14;;;;;;;2.90;2.60;;;29.80;54.30;;;;;;4997005;28;20116;-91
2021/07/30 08:56:40;;;;;;;4.90;2.90;;;30.00;53.80;;;;;;4995817;28;20033;-91
2021/07/30 08:59:08;;;;;;;5.18;2.88;;;30.10;53.00;;;;;;4996210;28;20541;-91
2021/07/30 09:01:37;;;;;;;5.07;3.17;;;30.20;52.20;;;;;;4997338;28;20018;-91
2021/07/30 09:04:02;;;;;;;3.03;2.45;;;30.10;52.00;;;;;;4997018;28;20029;-90
2021/07/30 09:06:28;;;;;;;3.10;2.85;;;30.20;51.90;;;;;;4996323;28;20394;-91
2021/07/30 09:08:54;;;;;;;3.15;2.45;;;30.50;51.60;;;;;;4996329;28;20018;-91
2021/07/30 09:11:27;;;;;;;5.32;3.10;;;30.70;50.90;;;;;;4997184;28;20033;-91
2021/07/30 09:13:53;;;;;;;3.67;3.28;;;31.10;49.90;;;;;;5004495;28;20021;-92
2021/07/30 09:16:19;;;;;;;6.20;2.83;;;31.40;49.90;;;;;;5015413;28;20051;-91
2021/07/30 09:18:45;;;;;;;3.72;2.80;;;31.40;48.20;;;;;;5015914;28;20033;-91
2021/07/30 09:21:32;;;;;;;2.45;2.25;;;31.30;47.80;;;;;;5017442;28;20116;-92
2021/07/30 09:24:06;;;;;;;4.70;2.45;;;31.20;48.30;;;;;;5016456;28;20028;-91
2021/07/30 09:26:34;;;;;;;3.05;2.45;;;31.40;47.80;;;;;;5009784;28;20030;-92
2021/07/30 09:29:02;;;;;;;6.05;2.30;;;31.50;47.40;;;;;;4977698;28;20030;-90
2021/07/30 09:31:40;;;;;;;3.28;2.33;;;31.70;47.10;;;;;;5005170;28;20026;-91
2021/07/30 09:34:23;;;;;;;4.28;2.50;;;31.80;46.40;;;;;;5015921;28;20390;-91
2021/07/30 09:36:54;;;;;;;2.60;2.28;;;31.90;46.60;;;;;;5014922;28;20033;-90
2021/07/30 09:39:41;;;;;;;2.92;2.53;;;32.00;46.00;;;;;;5032316;28;20036;-91
2021/07/30 09:42:12;;;;;;;2.30;1.98;;;32.00;46.20;;;;;;5013387;28;20060;-90
2021/07/30 09:45:05;;;;;;;2.92;2.72;;;32.00;46.20;;;;;;4991214;28;20056;-91
2021/07/30 09:47:47;;;;;;;3.03;2.65;;;32.20;46.30;;;;;;5016419;28;20036;-91
2021/07/30 09:50:13;;;;;;;4.82;2.40;;;32.20;45.50;;;;;;5015246;28;20044;-92
2021/07/30 09:52:41;;;;;;;2.80;2.45;;;32.20;45.80;;;;;;5016076;28;20033;-93
2021/07/30 09:55:12;;;;;;;2.60;2.40;;;32.20;45.40;;;;;;5015443;28;20091;-91
2021/07/30 09:57:40;;;;;;;3.22;2.42;;;32.30;45.70;;;;;;5015283;28;20032;-91
2021/07/30 10:00:07;;;;;;;3.08;2.17;;;32.30;45.60;;;;;;5015659;28;20497;-91
2021/07/30 10:02:42;;;;;;;2.50;2.30;;;32.20;46.10;;;;;;5014734;28;20032;-92
2021/07/30 10:05:12;;;;;;;2.53;2.33;;;32.00;45.50;;;;;;4992304;28;20026;-91
2021/07/30 10:07:40;;;;;;;3.28;2.47;;;31.70;45.80;;;;;;4982478;28;20049;-91
2021/07/30 10:10:15;;;;;;;2.50;2.28;;;31.20;45.80;;;;;;4977366;28;20125;-91
2021/07/30 10:12:51;;;;;;;2.72;2.40;;;30.90;46.80;;;;;;5005498;28;20014;-92
2021/07/30 10:15:17;;;;;;;3.85;2.70;;;30.70;47.00;;;;;;5003979;28;20026;-91
2021/07/30 10:17:48;;;;;;;3.50;2.70;;;30.40;46.90;;;;;;5033155;28;20026;-91
2021/07/30 10:20:15;;;;;;;2.53;2.33;;;30.10;46.70;;;;;;5000395;28;20030;-90
2021/07/30 10:22:59;;;;;;;5.95;2.67;;;29.90;47.20;;;;;;4997645;28;20026;-92
2021/07/30 10:25:29;;;;;;;4.07;2.70;;;29.70;47.00;;;;;;4996329;28;20022;-90
2021/07/30 10:28:01;;;;;;;2.83;2.57;;;29.50;47.60;;;;;;4988903;28;20026;-91
2021/07/30 10:30:27;;;;;;;2.85;2.53;;;29.10;48.30;;;;;;5002196;28;20071;-90
2021/07/30 10:33:02;;;;;;;4.75;2.90;;;28.80;48.20;;;;;;5015539;28;20044;-91
2021/07/30 10:35:27;;;;;;;3.90;3.00;;;28.50;48.40;;;;;;4999412;28;20524;-91
2021/07/30 10:38:18;;;;;;;2.80;2.60;;;28.40;49.10;;;;;;4995887;28;20026;-91
2021/07/30 10:41:07;;;;;;;3.28;2.60;;;28.20;49.30;;;;;;4995721;28;20058;-89
2021/07/30 10:43:53;;;;;;;3.40;2.80;;;28.20;50.20;;;;;;4984180;28;20022;-91
2021/07/30 10:46:20;;;;;;;3.80;2.80;;;28.20;50.90;;;;;;4999297;28;20049;-89
2021/07/30 10:48:47;;;;;;;5.32;2.85;;;28.10;50.40;;;;;;5017810;28;20030;-90
2021/07/30 10:51:19;;;;;;;3.20;2.90;;;28.00;49.90;;;;;;4999307;28;20030;-91
2021/07/30 10:53:49;;;;;;;3.83;3.00;;;27.80;50.30;;;;;;4999286;28;20021;-90
2021/07/30 10:56:18;;;;;;;3.10;2.80;;;27.60;50.90;;;;;;4998262;28;20033;-89
2021/07/30 10:58:43;;;;;;;4.13;3.40;;;27.60;51.70;;;;;;4998836;28;20029;-92
2021/07/30 11:01:21;;;;;;;6.80;3.05;;;27.60;51.70;;;;;;4999251;28;20464;-90
2021/07/30 11:03:52;;;;;;;4.60;3.03;;;27.60;50.80;;;;;;4998753;28;20032;-89
2021/07/30 11:06:26;;;;;;;4.32;2.95;;;27.40;51.40;;;;;;4998235;28;20512;-90
2021/07/30 11:09:04;;;;;;;3.00;2.80;;;27.30;51.50;;;;;;4998927;28;20034;-91
2021/07/30 11:11:35;;;;;;;5.18;3.25;;;27.30;51.80;;;;;;4998203;28;20034;-91
2021/07/30 11:14:04;;;;;;;6.38;3.17;;;27.30;51.40;;;;;;4998603;28;20057;-90
2021/07/30 11:16:30;;;;;;;3.22;2.85;;;27.30;51.60;;;;;;5014144;28;20120;-90
2021/07/30 11:18:57;;;;;;;3.95;3.17;;;27.10;52.50;;;;;;5014710;28;20120;-90
2021/07/30 11:21:26;;;;;;;4.55;3.50;;;27.10;52.60;;;;;;5014399;28;20049;-90
2021/07/30 11:23:51;;;;;;;3.58;3.20;;;27.20;52.80;;;;;;5015016;28;20022;-90
2021/07/30 11:26:19;;;;;;;4.40;3.53;;;27.30;54.00;;;;;;5013628;28;20072;-90
2021/07/30 11:28:56;;;;;;;4.03;2.90;;;27.50;54.80;;;;;;4997482;28;20464;-90
2021/07/30 11:31:22;;;;;;;3.97;3.10;;;27.60;54.60;;;;;;5006226;28;20109;-89
2021/07/30 11:33:48;;;;;;;5.03;3.53;;;27.70;53.80;;;;;;5014081;28;20022;-89
2021/07/30 11:36:17;;;;;;;6.47;3.85;;;27.70;53.70;;;;;;5013511;28;20037;-89
2021/07/30 11:38:56;;;;;;;5.10;3.08;;;27.60;53.90;;;;;;4998129;28;20422;-91
2021/07/30 11:41:23;;;;;;;3.67;3.17;;;27.80;54.30;;;;;;5013832;28;20106;-89
2021/07/30 11:44:03;;;;;;;4.97;3.70;;;27.90;53.60;;;;;;4997922;28;20235;-90
2021/07/30 11:46:31;;;;;;;3.78;3.38;;;27.90;52.80;;;;;;4998255;28;20032;-90
2021/07/30 11:49:08;;;;;;;6.03;3.47;;;27.90;53.40;;;;;;5020600;28;20029;-90
2021/07/30 11:52:20;;;;;;;5.82;3.30;;;28.00;53.70;;;;;;5003440;28;20029;-90
2021/07/30 11:54:45;;;;;;;4.17;3.63;;;28.10;53.30;;;;;;4988202;28;20053;-90
2021/07/30 11:57:23;;;;;;;3.63;3.30;;;28.00;53.20;;;;;;5013495;28;20026;-90
2021/07/30 11:59:50;;;;;;;4.68;3.63;;;28.00;54.10;;;;;;4978369;28;20027;-90
2021/07/30 12:02:15;;;;;;;5.60;3.38;;;28.00;53.70;;;;;;4978314;28;20018;-90
2021/07/30 12:04:55;;;;;;;4.93;3.75;;;28.10;54.00;;;;;;4992562;28;20032;-90
2021/07/30 12:07:25;;;;;;;6.07;3.45;;;28.20;54.40;;;;;;4996699;28;20159;-89
2021/07/30 12:09:55;;;;;;;3.55;3.25;;;28.30;54.00;;;;;;5008705;28;20076;-90
2021/07/30 12:12:22;;;;;;;7.22;3.63;;;28.30;53.30;;;;;;4996541;28;20042;-90
2021/07/30 12:14:51;;;;;;;6.05;3.45;;;28.40;54.20;;;;;;5019755;28;20021;-89
2021/07/30 12:17:17;;;;;;;4.35;3.70;;;28.50;54.50;;;;;;5016778;28;20108;-91
2021/07/30 12:19:54;;;;;;;5.18;3.72;;;28.60;54.10;;;;;;5017621;28;20458;-90
2021/07/30 12:22:36;;;;;;;6.15;3.67;;;28.60;53.70;;;;;;5016613;28;20167;-90
2021/07/30 12:25:03;;;;;;;4.57;3.95;;;28.60;54.20;;;;;;5015623;28;20033;-90
2021/07/30 12:27:28;;;;;;;7.60;3.70;;;28.80;54.80;;;;;;4997044;28;20035;-90
2021/07/30 12:29:54;;;;;;;6.45;4.00;;;28.90;55.20;;;;;;4983142;28;20026;-91
2021/07/30 12:32:21;;;;;;;4.35;3.30;;;29.00;54.90;;;;;;5012020;28;20029;-90
2021/07/30 12:35:02;;;;;;;6.60;3.50;;;29.20;54.90;;;;;;5015636;28;20124;-89
2021/07/30 12:37:29;;;;;;;4.35;3.40;;;29.20;54.10;;;;;;5016383;28;20505;-90
2021/07/30 12:40:03;;;;;;;4.13;3.30;;;29.20;54.20;;;;;;5016400;28;20120;-90
2021/07/30 12:42:32;;;;;;;5.30;3.47;;;29.40;54.80;;;;;;5010585;28;20053;-90
2021/07/30 12:45:08;;;;;;;6.72;4.03;;;29.50;54.00;;;;;;5002349;28;20013;-89
2021/07/30 12:47:39;;;;;;;6.03;3.70;;;29.60;53.30;;;;;;5034013;28;20101;-89